sensor_id;sensor_type;location;lat;lon;timestamp;P1;durP1;ratioP1;P2;durP2;ratioP2
73452;SDS011;61687;56.232;43.854;2023-08-07T00:00:30;22.80;;;10.18;;
73452;SDS011;61687;56.232;43.854;2023-08-07T00:02:56;19.83;;;9.27;;
73452;SDS011;61687;56.232;43.854;2023-08-07T00:05:22;19.67;;;9.50;;
73452;SDS011;61687;56.232;43.854;2023-08-07T00:07:48;15.32;;;9.57;;
73452;SDS011;61687;56.232;43.854;2023-08-07T00:10:14;15.98;;;9.65;;
73452;SDS011;61687;56.232;43.854;2023-08-07T00:12:40;22.80;;;11.10;;
73452;SDS011;61687;56.232;43.854;2023-08-07T00:15:07;25.47;;;11.73;;
73452;SDS011;61687;56.232;43.854;2023-08-07T00:17:33;17.33;;;10.80;;
73452;SDS011;61687;56.232;43.854;2023-08-07T00:19:59;20.05;;;10.90;;
73452;SDS011;61687;56.232;43.854;2023-08-07T00:22:25;22.60;;;10.60;;
73452;SDS011;61687;56.232;43.854;2023-08-07T00:24:51;19.98;;;11.07;;
73452;SDS011;61687;56.232;43.854;2023-08-07T00:27:17;20.52;;;10.73;;
73452;SDS011;61687;56.232;43.854;2023-08-07T00:29:43;22.52;;;10.90;;
73452;SDS011;61687;56.232;43.854;2023-08-07T00:32:09;20.80;;;11.13;;
73452;SDS011;61687;56.232;43.854;2023-08-07T00:34:35;19.50;;;10.57;;
73452;SDS011;61687;56.232;43.854;2023-08-07T00:37:01;17.60;;;10.43;;
73452;SDS011;61687;56.232;43.854;2023-08-07T00:39:27;19.48;;;10.60;;
73452;SDS011;61687;56.232;43.854;2023-08-07T00:41:53;19.10;;;10.17;;
73452;SDS011;61687;56.232;43.854;2023-08-07T00:44:19;18.85;;;10.23;;
73452;SDS011;61687;56.232;43.854;2023-08-07T00:46:45;17.63;;;11.75;;
73452;SDS011;61687;56.232;43.854;2023-08-07T00:49:12;20.67;;;11.18;;
73452;SDS011;61687;56.232;43.854;2023-08-07T00:51:39;24.63;;;11.68;;
73452;SDS011;61687;56.232;43.854;2023-08-07T00:54:05;20.63;;;10.27;;
73452;SDS011;61687;56.232;43.854;2023-08-07T00:56:35;22.60;;;11.23;;
73452;SDS011;61687;56.232;43.854;2023-08-07T00:59:01;21.55;;;11.60;;
73452;SDS011;61687;56.232;43.854;2023-08-07T01:01:29;22.33;;;10.40;;
73452;SDS011;61687;56.232;43.854;2023-08-07T01:03:55;19.55;;;11.40;;
73452;SDS011;61687;56.232;43.854;2023-08-07T01:06:21;19.97;;;10.20;;
73452;SDS011;61687;56.232;43.854;2023-08-07T01:08:47;18.40;;;11.23;;
73452;SDS011;61687;56.232;43.854;2023-08-07T01:11:18;20.50;;;11.38;;
73452;SDS011;61687;56.232;43.854;2023-08-07T01:13:55;23.80;;;11.68;;
73452;SDS011;61687;56.232;43.854;2023-08-07T01:16:30;20.07;;;11.07;;
73452;SDS011;61687;56.232;43.854;2023-08-07T01:19:01;23.55;;;11.07;;
73452;SDS011;61687;56.232;43.854;2023-08-07T01:21:30;20.48;;;10.77;;
73452;SDS011;61687;56.232;43.854;2023-08-07T01:23:58;17.58;;;11.20;;
73452;SDS011;61687;56.232;43.854;2023-08-07T01:26:24;21.60;;;11.23;;
73452;SDS011;61687;56.232;43.854;2023-08-07T01:29:12;22.67;;;11.40;;
73452;SDS011;61687;56.232;43.854;2023-08-07T01:31:42;21.05;;;11.30;;
73452;SDS011;61687;56.232;43.854;2023-08-07T01:34:11;22.70;;;11.90;;
73452;SDS011;61687;56.232;43.854;2023-08-07T01:36:41;20.65;;;10.65;;
73452;SDS011;61687;56.232;43.854;2023-08-07T01:39:08;22.75;;;12.13;;
73452;SDS011;61687;56.232;43.854;2023-08-07T01:41:35;20.93;;;12.93;;
73452;SDS011;61687;56.232;43.854;2023-08-07T01:44:01;18.30;;;11.00;;
73452;SDS011;61687;56.232;43.854;2023-08-07T01:46:28;22.55;;;12.07;;
73452;SDS011;61687;56.232;43.854;2023-08-07T01:48:54;22.05;;;11.75;;
73452;SDS011;61687;56.232;43.854;2023-08-07T01:51:21;19.10;;;11.60;;
73452;SDS011;61687;56.232;43.854;2023-08-07T01:53:49;23.25;;;12.00;;
73452;SDS011;61687;56.232;43.854;2023-08-07T01:56:15;22.10;;;12.10;;
73452;SDS011;61687;56.232;43.854;2023-08-07T01:58:41;22.02;;;11.60;;
73452;SDS011;61687;56.232;43.854;2023-08-07T02:01:06;20.80;;;12.43;;
73452;SDS011;61687;56.232;43.854;2023-08-07T02:03:33;21.83;;;12.88;;
73452;SDS011;61687;56.232;43.854;2023-08-07T02:05:59;29.65;;;13.27;;
73452;SDS011;61687;56.232;43.854;2023-08-07T02:08:26;18.67;;;11.98;;
73452;SDS011;61687;56.232;43.854;2023-08-07T02:10:52;20.75;;;12.25;;
73452;SDS011;61687;56.232;43.854;2023-08-07T02:13:19;26.27;;;13.63;;
73452;SDS011;61687;56.232;43.854;2023-08-07T02:15:45;27.02;;;13.40;;
73452;SDS011;61687;56.232;43.854;2023-08-07T02:18:12;20.80;;;12.57;;
73452;SDS011;61687;56.232;43.854;2023-08-07T02:20:38;22.00;;;13.23;;
73452;SDS011;61687;56.232;43.854;2023-08-07T02:23:04;21.57;;;12.47;;
73452;SDS011;61687;56.232;43.854;2023-08-07T02:25:30;21.00;;;12.10;;
73452;SDS011;61687;56.232;43.854;2023-08-07T02:27:56;24.07;;;13.80;;
73452;SDS011;61687;56.232;43.854;2023-08-07T02:30:21;26.93;;;15.40;;
73452;SDS011;61687;56.232;43.854;2023-08-07T02:32:49;23.17;;;14.23;;
73452;SDS011;61687;56.232;43.854;2023-08-07T02:35:15;25.30;;;13.13;;
73452;SDS011;61687;56.232;43.854;2023-08-07T02:37:41;24.77;;;14.73;;
73452;SDS011;61687;56.232;43.854;2023-08-07T02:40:07;27.93;;;17.10;;
73452;SDS011;61687;56.232;43.854;2023-08-07T02:42:34;32.85;;;17.23;;
73452;SDS011;61687;56.232;43.854;2023-08-07T02:45:00;29.27;;;15.18;;
73452;SDS011;61687;56.232;43.854;2023-08-07T02:47:26;24.30;;;13.90;;
73452;SDS011;61687;56.232;43.854;2023-08-07T02:49:52;26.57;;;14.97;;
73452;SDS011;61687;56.232;43.854;2023-08-07T02:52:18;34.15;;;16.27;;
73452;SDS011;61687;56.232;43.854;2023-08-07T02:54:43;33.17;;;14.98;;
73452;SDS011;61687;56.232;43.854;2023-08-07T02:57:09;27.67;;;15.00;;
73452;SDS011;61687;56.232;43.854;2023-08-07T02:59:35;33.43;;;15.73;;
73452;SDS011;61687;56.232;43.854;2023-08-07T03:02:01;30.15;;;15.63;;
73452;SDS011;61687;56.232;43.854;2023-08-07T03:04:27;26.45;;;14.65;;
73452;SDS011;61687;56.232;43.854;2023-08-07T03:06:53;30.30;;;15.53;;
73452;SDS011;61687;56.232;43.854;2023-08-07T03:09:20;28.50;;;16.60;;
73452;SDS011;61687;56.232;43.854;2023-08-07T03:11:45;21.92;;;13.30;;
73452;SDS011;61687;56.232;43.854;2023-08-07T03:14:12;25.27;;;13.82;;
73452;SDS011;61687;56.232;43.854;2023-08-07T03:16:38;22.17;;;11.70;;
73452;SDS011;61687;56.232;43.854;2023-08-07T03:19:04;16.15;;;9.75;;
73452;SDS011;61687;56.232;43.854;2023-08-07T03:21:29;19.35;;;11.05;;
73452;SDS011;61687;56.232;43.854;2023-08-07T03:23:55;28.20;;;11.23;;
73452;SDS011;61687;56.232;43.854;2023-08-07T03:26:21;11.90;;;7.45;;
73452;SDS011;61687;56.232;43.854;2023-08-07T03:28:48;11.88;;;6.70;;
73452;SDS011;61687;56.232;43.854;2023-08-07T03:31:14;9.75;;;6.55;;
73452;SDS011;61687;56.232;43.854;2023-08-07T03:33:41;10.60;;;6.25;;
73452;SDS011;61687;56.232;43.854;2023-08-07T03:36:07;9.97;;;6.13;;
73452;SDS011;61687;56.232;43.854;2023-08-07T03:38:34;10.23;;;6.10;;
73452;SDS011;61687;56.232;43.854;2023-08-07T03:41:00;12.82;;;6.28;;
73452;SDS011;61687;56.232;43.854;2023-08-07T03:43:28;10.82;;;5.68;;
73452;SDS011;61687;56.232;43.854;2023-08-07T03:45:54;8.02;;;6.00;;
73452;SDS011;61687;56.232;43.854;2023-08-07T03:48:22;10.27;;;5.93;;
73452;SDS011;61687;56.232;43.854;2023-08-07T03:50:48;9.50;;;5.95;;
73452;SDS011;61687;56.232;43.854;2023-08-07T03:53:15;8.57;;;5.95;;
73452;SDS011;61687;56.232;43.854;2023-08-07T03:55:48;11.07;;;5.45;;
73452;SDS011;61687;56.232;43.854;2023-08-07T03:58:16;10.35;;;5.70;;
73452;SDS011;61687;56.232;43.854;2023-08-07T04:00:42;9.07;;;6.13;;
73452;SDS011;61687;56.232;43.854;2023-08-07T04:03:07;7.78;;;6.32;;
73452;SDS011;61687;56.232;43.854;2023-08-07T04:05:33;8.70;;;5.18;;
73452;SDS011;61687;56.232;43.854;2023-08-07T04:07:59;7.23;;;5.70;;
73452;SDS011;61687;56.232;43.854;2023-08-07T04:10:25;7.70;;;5.75;;
73452;SDS011;61687;56.232;43.854;2023-08-07T04:12:51;8.30;;;6.13;;
73452;SDS011;61687;56.232;43.854;2023-08-07T04:15:17;7.57;;;5.50;;
73452;SDS011;61687;56.232;43.854;2023-08-07T04:17:43;8.80;;;5.70;;
73452;SDS011;61687;56.232;43.854;2023-08-07T04:20:09;9.55;;;5.70;;
73452;SDS011;61687;56.232;43.854;2023-08-07T04:22:35;7.30;;;5.85;;
73452;SDS011;61687;56.232;43.854;2023-08-07T04:25:01;8.73;;;5.53;;
73452;SDS011;61687;56.232;43.854;2023-08-07T04:27:29;6.57;;;5.85;;
73452;SDS011;61687;56.232;43.854;2023-08-07T04:29:56;9.52;;;5.45;;
73452;SDS011;61687;56.232;43.854;2023-08-07T04:32:23;7.15;;;5.13;;
73452;SDS011;61687;56.232;43.854;2023-08-07T04:34:49;8.23;;;5.30;;
73452;SDS011;61687;56.232;43.854;2023-08-07T04:37:14;9.93;;;5.78;;
73452;SDS011;61687;56.232;43.854;2023-08-07T04:39:40;10.18;;;6.05;;
73452;SDS011;61687;56.232;43.854;2023-08-07T04:42:06;12.07;;;5.17;;
73452;SDS011;61687;56.232;43.854;2023-08-07T04:44:32;9.88;;;5.65;;
73452;SDS011;61687;56.232;43.854;2023-08-07T04:46:57;11.70;;;5.80;;
73452;SDS011;61687;56.232;43.854;2023-08-07T04:49:23;6.50;;;5.00;;
73452;SDS011;61687;56.232;43.854;2023-08-07T04:51:49;8.35;;;5.18;;
73452;SDS011;61687;56.232;43.854;2023-08-07T04:54:15;9.13;;;5.37;;
73452;SDS011;61687;56.232;43.854;2023-08-07T04:56:41;11.15;;;6.80;;
73452;SDS011;61687;56.232;43.854;2023-08-07T04:59:10;8.40;;;5.53;;
73452;SDS011;61687;56.232;43.854;2023-08-07T05:01:36;8.40;;;5.43;;
73452;SDS011;61687;56.232;43.854;2023-08-07T05:04:02;6.05;;;4.85;;
73452;SDS011;61687;56.232;43.854;2023-08-07T05:06:29;8.52;;;5.13;;
73452;SDS011;61687;56.232;43.854;2023-08-07T05:08:55;9.40;;;5.00;;
73452;SDS011;61687;56.232;43.854;2023-08-07T05:11:21;9.32;;;5.45;;
73452;SDS011;61687;56.232;43.854;2023-08-07T05:13:47;7.50;;;5.10;;
73452;SDS011;61687;56.232;43.854;2023-08-07T05:16:12;8.87;;;4.30;;
73452;SDS011;61687;56.232;43.854;2023-08-07T05:18:38;9.00;;;5.13;;
73452;SDS011;61687;56.232;43.854;2023-08-07T05:21:04;7.53;;;5.40;;
73452;SDS011;61687;56.232;43.854;2023-08-07T05:23:32;7.73;;;5.20;;
73452;SDS011;61687;56.232;43.854;2023-08-07T05:25:58;6.60;;;4.63;;
73452;SDS011;61687;56.232;43.854;2023-08-07T05:28:24;7.85;;;4.90;;
73452;SDS011;61687;56.232;43.854;2023-08-07T05:30:49;7.10;;;5.23;;
73452;SDS011;61687;56.232;43.854;2023-08-07T05:33:15;9.65;;;4.75;;
73452;SDS011;61687;56.232;43.854;2023-08-07T05:35:41;6.77;;;4.57;;
73452;SDS011;61687;56.232;43.854;2023-08-07T05:38:07;8.32;;;4.78;;
73452;SDS011;61687;56.232;43.854;2023-08-07T05:40:32;7.13;;;4.20;;
73452;SDS011;61687;56.232;43.854;2023-08-07T05:43:01;8.73;;;5.38;;
73452;SDS011;61687;56.232;43.854;2023-08-07T05:45:26;9.32;;;4.22;;
73452;SDS011;61687;56.232;43.854;2023-08-07T05:47:52;7.00;;;5.00;;
73452;SDS011;61687;56.232;43.854;2023-08-07T05:50:18;9.75;;;4.70;;
73452;SDS011;61687;56.232;43.854;2023-08-07T05:52:45;7.85;;;4.70;;
73452;SDS011;61687;56.232;43.854;2023-08-07T05:55:11;7.63;;;5.32;;
73452;SDS011;61687;56.232;43.854;2023-08-07T05:57:36;6.97;;;4.50;;
73452;SDS011;61687;56.232;43.854;2023-08-07T06:00:02;8.25;;;4.82;;
73452;SDS011;61687;56.232;43.854;2023-08-07T06:02:37;11.07;;;5.07;;
73452;SDS011;61687;56.232;43.854;2023-08-07T06:05:03;7.90;;;4.60;;
73452;SDS011;61687;56.232;43.854;2023-08-07T06:07:30;10.82;;;4.60;;
73452;SDS011;61687;56.232;43.854;2023-08-07T06:09:55;6.20;;;4.10;;
73452;SDS011;61687;56.232;43.854;2023-08-07T06:12:21;5.73;;;4.00;;
73452;SDS011;61687;56.232;43.854;2023-08-07T06:14:47;7.90;;;3.95;;
73452;SDS011;61687;56.232;43.854;2023-08-07T06:17:13;7.32;;;4.22;;
73452;SDS011;61687;56.232;43.854;2023-08-07T06:19:39;8.25;;;4.38;;
73452;SDS011;61687;56.232;43.854;2023-08-07T06:22:05;10.00;;;4.50;;
73452;SDS011;61687;56.232;43.854;2023-08-07T06:24:31;7.25;;;4.20;;
73452;SDS011;61687;56.232;43.854;2023-08-07T06:26:57;6.72;;;4.20;;
73452;SDS011;61687;56.232;43.854;2023-08-07T06:29:23;6.60;;;3.90;;
73452;SDS011;61687;56.232;43.854;2023-08-07T06:31:49;7.60;;;3.80;;
73452;SDS011;61687;56.232;43.854;2023-08-07T06:34:15;5.68;;;3.75;;
73452;SDS011;61687;56.232;43.854;2023-08-07T06:36:41;4.68;;;3.42;;
73452;SDS011;61687;56.232;43.854;2023-08-07T06:39:07;7.30;;;4.10;;
73452;SDS011;61687;56.232;43.854;2023-08-07T06:41:33;5.70;;;3.77;;
73452;SDS011;61687;56.232;43.854;2023-08-07T06:43:59;7.78;;;4.43;;
73452;SDS011;61687;56.232;43.854;2023-08-07T06:46:24;5.40;;;3.57;;
73452;SDS011;61687;56.232;43.854;2023-08-07T06:48:52;7.53;;;3.50;;
73452;SDS011;61687;56.232;43.854;2023-08-07T06:51:18;8.13;;;3.72;;
73452;SDS011;61687;56.232;43.854;2023-08-07T06:53:44;7.13;;;3.38;;
73452;SDS011;61687;56.232;43.854;2023-08-07T06:56:10;6.63;;;3.40;;
73452;SDS011;61687;56.232;43.854;2023-08-07T06:58:35;7.90;;;3.40;;
73452;SDS011;61687;56.232;43.854;2023-08-07T07:01:01;4.97;;;3.67;;
73452;SDS011;61687;56.232;43.854;2023-08-07T07:03:27;8.65;;;3.83;;
73452;SDS011;61687;56.232;43.854;2023-08-07T07:05:53;9.87;;;4.93;;
73452;SDS011;61687;56.232;43.854;2023-08-07T07:08:20;7.38;;;4.60;;
73452;SDS011;61687;56.232;43.854;2023-08-07T07:10:47;8.15;;;3.95;;
73452;SDS011;61687;56.232;43.854;2023-08-07T07:13:13;5.88;;;4.30;;
73452;SDS011;61687;56.232;43.854;2023-08-07T07:15:39;4.97;;;3.50;;
73452;SDS011;61687;56.232;43.854;2023-08-07T07:18:04;6.00;;;3.90;;
73452;SDS011;61687;56.232;43.854;2023-08-07T07:20:30;8.35;;;3.92;;
73452;SDS011;61687;56.232;43.854;2023-08-07T07:22:56;4.72;;;3.28;;
73452;SDS011;61687;56.232;43.854;2023-08-07T07:25:22;5.60;;;3.60;;
73452;SDS011;61687;56.232;43.854;2023-08-07T07:27:48;5.80;;;3.53;;
73452;SDS011;61687;56.232;43.854;2023-08-07T07:30:14;7.53;;;3.95;;
73452;SDS011;61687;56.232;43.854;2023-08-07T07:32:40;6.13;;;3.33;;
73452;SDS011;61687;56.232;43.854;2023-08-07T07:35:06;4.67;;;3.83;;
73452;SDS011;61687;56.232;43.854;2023-08-07T07:37:32;5.90;;;3.72;;
73452;SDS011;61687;56.232;43.854;2023-08-07T07:39:58;6.75;;;3.65;;
73452;SDS011;61687;56.232;43.854;2023-08-07T07:42:24;4.60;;;3.30;;
73452;SDS011;61687;56.232;43.854;2023-08-07T07:44:50;4.45;;;3.05;;
73452;SDS011;61687;56.232;43.854;2023-08-07T07:47:16;4.57;;;3.20;;
73452;SDS011;61687;56.232;43.854;2023-08-07T07:49:45;4.90;;;3.00;;
73452;SDS011;61687;56.232;43.854;2023-08-07T07:52:15;4.63;;;3.20;;
73452;SDS011;61687;56.232;43.854;2023-08-07T07:54:41;4.80;;;3.42;;
73452;SDS011;61687;56.232;43.854;2023-08-07T07:57:07;4.35;;;3.35;;
73452;SDS011;61687;56.232;43.854;2023-08-07T07:59:33;6.53;;;4.15;;
73452;SDS011;61687;56.232;43.854;2023-08-07T08:01:59;4.93;;;3.43;;
73452;SDS011;61687;56.232;43.854;2023-08-07T08:04:25;12.73;;;3.80;;
73452;SDS011;61687;56.232;43.854;2023-08-07T08:06:50;5.30;;;3.90;;
73452;SDS011;61687;56.232;43.854;2023-08-07T08:09:16;5.30;;;4.30;;
73452;SDS011;61687;56.232;43.854;2023-08-07T08:11:42;6.53;;;4.07;;
73452;SDS011;61687;56.232;43.854;2023-08-07T08:14:08;6.25;;;3.53;;
73452;SDS011;61687;56.232;43.854;2023-08-07T08:16:34;7.63;;;3.38;;
73452;SDS011;61687;56.232;43.854;2023-08-07T08:19:00;7.27;;;4.30;;
73452;SDS011;61687;56.232;43.854;2023-08-07T08:21:27;8.80;;;4.43;;
73452;SDS011;61687;56.232;43.854;2023-08-07T08:23:53;6.80;;;3.58;;
73452;SDS011;61687;56.232;43.854;2023-08-07T08:26:19;7.07;;;3.47;;
73452;SDS011;61687;56.232;43.854;2023-08-07T08:28:45;5.18;;;3.60;;
73452;SDS011;61687;56.232;43.854;2023-08-07T08:31:11;5.70;;;3.60;;
73452;SDS011;61687;56.232;43.854;2023-08-07T08:33:37;8.90;;;3.40;;
73452;SDS011;61687;56.232;43.854;2023-08-07T08:36:02;9.25;;;5.57;;
73452;SDS011;61687;56.232;43.854;2023-08-07T08:38:28;8.15;;;4.38;;
73452;SDS011;61687;56.232;43.854;2023-08-07T08:40:58;5.60;;;3.60;;
73452;SDS011;61687;56.232;43.854;2023-08-07T08:43:30;5.07;;;3.37;;
73452;SDS011;61687;56.232;43.854;2023-08-07T08:46:00;6.05;;;3.55;;
73452;SDS011;61687;56.232;43.854;2023-08-07T08:48:26;6.40;;;3.50;;
73452;SDS011;61687;56.232;43.854;2023-08-07T08:50:57;5.20;;;3.40;;
73452;SDS011;61687;56.232;43.854;2023-08-07T08:53:23;7.60;;;4.05;;
73452;SDS011;61687;56.232;43.854;2023-08-07T08:55:49;4.30;;;3.10;;
73452;SDS011;61687;56.232;43.854;2023-08-07T08:58:16;7.03;;;3.20;;
73452;SDS011;61687;56.232;43.854;2023-08-07T09:00:44;6.82;;;3.33;;
73452;SDS011;61687;56.232;43.854;2023-08-07T09:03:10;7.80;;;3.75;;
73452;SDS011;61687;56.232;43.854;2023-08-07T09:05:37;4.90;;;3.83;;
73452;SDS011;61687;56.232;43.854;2023-08-07T09:08:04;6.70;;;3.70;;
73452;SDS011;61687;56.232;43.854;2023-08-07T09:10:30;4.63;;;3.60;;
73452;SDS011;61687;56.232;43.854;2023-08-07T09:13:01;5.57;;;3.88;;
73452;SDS011;61687;56.232;43.854;2023-08-07T09:15:32;5.30;;;3.70;;
73452;SDS011;61687;56.232;43.854;2023-08-07T09:17:58;5.55;;;3.60;;
73452;SDS011;61687;56.232;43.854;2023-08-07T09:20:26;5.33;;;3.50;;
73452;SDS011;61687;56.232;43.854;2023-08-07T09:22:53;4.72;;;3.15;;
73452;SDS011;61687;56.232;43.854;2023-08-07T09:25:33;6.97;;;3.70;;
73452;SDS011;61687;56.232;43.854;2023-08-07T09:28:03;6.07;;;3.75;;
73452;SDS011;61687;56.232;43.854;2023-08-07T09:30:30;5.30;;;3.92;;
73452;SDS011;61687;56.232;43.854;2023-08-07T09:32:58;4.83;;;3.87;;
73452;SDS011;61687;56.232;43.854;2023-08-07T09:35:25;6.40;;;4.07;;
73452;SDS011;61687;56.232;43.854;2023-08-07T09:37:51;8.23;;;3.95;;
73452;SDS011;61687;56.232;43.854;2023-08-07T09:40:17;5.43;;;3.75;;
73452;SDS011;61687;56.232;43.854;2023-08-07T09:42:49;6.93;;;3.60;;
73452;SDS011;61687;56.232;43.854;2023-08-07T09:45:26;6.10;;;4.10;;
73452;SDS011;61687;56.232;43.854;2023-08-07T09:48:00;4.93;;;3.80;;
73452;SDS011;61687;56.232;43.854;2023-08-07T09:50:27;6.95;;;4.07;;
73452;SDS011;61687;56.232;43.854;2023-08-07T09:52:54;7.97;;;4.20;;
73452;SDS011;61687;56.232;43.854;2023-08-07T09:55:24;7.53;;;4.10;;
73452;SDS011;61687;56.232;43.854;2023-08-07T09:57:51;6.40;;;4.25;;
73452;SDS011;61687;56.232;43.854;2023-08-07T10:00:19;7.30;;;3.85;;
73452;SDS011;61687;56.232;43.854;2023-08-07T10:02:47;7.13;;;4.10;;
73452;SDS011;61687;56.232;43.854;2023-08-07T10:05:14;9.00;;;4.28;;
73452;SDS011;61687;56.232;43.854;2023-08-07T10:07:40;5.70;;;3.73;;
73452;SDS011;61687;56.232;43.854;2023-08-07T10:10:07;7.88;;;4.00;;
73452;SDS011;61687;56.232;43.854;2023-08-07T10:12:34;9.23;;;4.00;;
73452;SDS011;61687;56.232;43.854;2023-08-07T10:15:00;5.28;;;3.78;;
73452;SDS011;61687;56.232;43.854;2023-08-07T10:17:27;8.35;;;3.70;;
73452;SDS011;61687;56.232;43.854;2023-08-07T10:19:56;6.03;;;3.90;;
73452;SDS011;61687;56.232;43.854;2023-08-07T10:22:26;11.52;;;3.90;;
73452;SDS011;61687;56.232;43.854;2023-08-07T10:24:56;7.68;;;3.83;;
73452;SDS011;61687;56.232;43.854;2023-08-07T10:27:23;4.78;;;3.80;;
73452;SDS011;61687;56.232;43.854;2023-08-07T10:29:51;5.82;;;4.20;;
73452;SDS011;61687;56.232;43.854;2023-08-07T10:32:19;4.33;;;3.53;;
73452;SDS011;61687;56.232;43.854;2023-08-07T10:34:49;5.97;;;4.20;;
73452;SDS011;61687;56.232;43.854;2023-08-07T10:40:01;5.90;;;3.75;;
73452;SDS011;61687;56.232;43.854;2023-08-07T10:45:17;6.00;;;3.50;;
73452;SDS011;61687;56.232;43.854;2023-08-07T10:47:56;5.47;;;3.30;;
73452;SDS011;61687;56.232;43.854;2023-08-07T10:50:51;5.47;;;3.90;;
73452;SDS011;61687;56.232;43.854;2023-08-07T10:55:55;5.18;;;3.80;;
73452;SDS011;61687;56.232;43.854;2023-08-07T10:58:23;6.57;;;3.47;;
73452;SDS011;61687;56.232;43.854;2023-08-07T11:00:51;6.65;;;3.55;;
73452;SDS011;61687;56.232;43.854;2023-08-07T11:03:36;10.43;;;4.15;;
73452;SDS011;61687;56.232;43.854;2023-08-07T11:06:02;7.57;;;4.30;;
73452;SDS011;61687;56.232;43.854;2023-08-07T11:08:28;5.15;;;3.58;;
73452;SDS011;61687;56.232;43.854;2023-08-07T11:10:55;7.27;;;3.50;;
73452;SDS011;61687;56.232;43.854;2023-08-07T11:13:29;6.90;;;4.00;;
73452;SDS011;61687;56.232;43.854;2023-08-07T11:15:55;6.32;;;3.95;;
73452;SDS011;61687;56.232;43.854;2023-08-07T11:18:22;6.00;;;3.90;;
73452;SDS011;61687;56.232;43.854;2023-08-07T11:20:48;5.88;;;3.83;;
73452;SDS011;61687;56.232;43.854;2023-08-07T11:23:14;5.70;;;4.10;;
73452;SDS011;61687;56.232;43.854;2023-08-07T11:25:41;8.07;;;4.10;;
73452;SDS011;61687;56.232;43.854;2023-08-07T11:28:07;4.70;;;3.50;;
73452;SDS011;61687;56.232;43.854;2023-08-07T11:30:34;7.55;;;3.58;;
73452;SDS011;61687;56.232;43.854;2023-08-07T11:33:01;6.60;;;3.30;;
73452;SDS011;61687;56.232;43.854;2023-08-07T11:35:27;5.50;;;3.60;;
73452;SDS011;61687;56.232;43.854;2023-08-07T11:37:54;8.68;;;3.70;;
73452;SDS011;61687;56.232;43.854;2023-08-07T11:40:20;7.70;;;3.78;;
73452;SDS011;61687;56.232;43.854;2023-08-07T11:42:46;4.87;;;3.80;;
73452;SDS011;61687;56.232;43.854;2023-08-07T11:45:12;5.43;;;3.60;;
73452;SDS011;61687;56.232;43.854;2023-08-07T11:47:38;6.43;;;3.55;;
73452;SDS011;61687;56.232;43.854;2023-08-07T11:50:05;5.72;;;4.70;;
73452;SDS011;61687;56.232;43.854;2023-08-07T11:52:31;6.43;;;4.07;;
73452;SDS011;61687;56.232;43.854;2023-08-07T11:54:57;8.40;;;4.53;;
73452;SDS011;61687;56.232;43.854;2023-08-07T11:57:24;6.68;;;3.85;;
73452;SDS011;61687;56.232;43.854;2023-08-07T11:59:50;6.45;;;3.85;;
73452;SDS011;61687;56.232;43.854;2023-08-07T12:02:16;5.30;;;4.18;;
73452;SDS011;61687;56.232;43.854;2023-08-07T12:04:42;6.40;;;3.50;;
73452;SDS011;61687;56.232;43.854;2023-08-07T12:07:09;6.07;;;3.15;;
73452;SDS011;61687;56.232;43.854;2023-08-07T12:09:36;14.95;;;3.78;;
73452;SDS011;61687;56.232;43.854;2023-08-07T12:12:03;8.13;;;3.30;;
73452;SDS011;61687;56.232;43.854;2023-08-07T12:14:29;5.13;;;3.20;;
73452;SDS011;61687;56.232;43.854;2023-08-07T12:16:55;11.30;;;3.63;;
73452;SDS011;61687;56.232;43.854;2023-08-07T12:19:21;9.20;;;3.40;;
73452;SDS011;61687;56.232;43.854;2023-08-07T12:21:47;7.20;;;3.60;;
73452;SDS011;61687;56.232;43.854;2023-08-07T12:24:13;5.93;;;3.47;;
73452;SDS011;61687;56.232;43.854;2023-08-07T12:26:39;5.37;;;3.10;;
73452;SDS011;61687;56.232;43.854;2023-08-07T12:29:05;6.37;;;3.37;;
73452;SDS011;61687;56.232;43.854;2023-08-07T12:31:31;4.80;;;3.45;;
73452;SDS011;61687;56.232;43.854;2023-08-07T12:33:57;6.10;;;3.80;;
73452;SDS011;61687;56.232;43.854;2023-08-07T12:36:23;7.23;;;4.23;;
73452;SDS011;61687;56.232;43.854;2023-08-07T12:38:49;6.65;;;3.60;;
73452;SDS011;61687;56.232;43.854;2023-08-07T12:41:15;7.78;;;3.45;;
73452;SDS011;61687;56.232;43.854;2023-08-07T12:43:41;5.47;;;3.50;;
73452;SDS011;61687;56.232;43.854;2023-08-07T12:46:06;9.80;;;3.45;;
73452;SDS011;61687;56.232;43.854;2023-08-07T12:48:32;7.43;;;3.70;;
73452;SDS011;61687;56.232;43.854;2023-08-07T12:50:58;5.57;;;3.33;;
73452;SDS011;61687;56.232;43.854;2023-08-07T12:53:24;5.43;;;3.87;;
73452;SDS011;61687;56.232;43.854;2023-08-07T12:55:50;6.05;;;4.00;;
73452;SDS011;61687;56.232;43.854;2023-08-07T12:58:16;7.28;;;4.00;;
73452;SDS011;61687;56.232;43.854;2023-08-07T13:00:44;7.93;;;4.30;;
73452;SDS011;61687;56.232;43.854;2023-08-07T13:03:10;5.70;;;3.77;;
73452;SDS011;61687;56.232;43.854;2023-08-07T13:05:36;5.72;;;4.15;;
73452;SDS011;61687;56.232;43.854;2023-08-07T13:08:01;4.70;;;3.50;;
73452;SDS011;61687;56.232;43.854;2023-08-07T13:10:27;5.97;;;3.83;;
73452;SDS011;61687;56.232;43.854;2023-08-07T13:12:54;6.40;;;3.13;;
73452;SDS011;61687;56.232;43.854;2023-08-07T13:15:20;7.35;;;4.20;;
73452;SDS011;61687;56.232;43.854;2023-08-07T13:17:46;9.10;;;3.80;;
73452;SDS011;61687;56.232;43.854;2023-08-07T13:20:12;7.78;;;3.92;;
73452;SDS011;61687;56.232;43.854;2023-08-07T13:22:40;5.37;;;3.47;;
73452;SDS011;61687;56.232;43.854;2023-08-07T13:25:08;4.75;;;3.03;;
73452;SDS011;61687;56.232;43.854;2023-08-07T13:27:35;5.35;;;3.13;;
73452;SDS011;61687;56.232;43.854;2023-08-07T13:30:02;6.43;;;3.45;;
73452;SDS011;61687;56.232;43.854;2023-08-07T13:32:33;6.28;;;3.45;;
73452;SDS011;61687;56.232;43.854;2023-08-07T13:34:58;6.80;;;5.43;;
73452;SDS011;61687;56.232;43.854;2023-08-07T13:37:25;4.40;;;3.22;;
73452;SDS011;61687;56.232;43.854;2023-08-07T13:39:50;5.00;;;3.50;;
73452;SDS011;61687;56.232;43.854;2023-08-07T13:43:02;4.80;;;3.45;;
73452;SDS011;61687;56.232;43.854;2023-08-07T13:45:33;4.60;;;3.70;;
73452;SDS011;61687;56.232;43.854;2023-08-07T13:47:58;6.57;;;3.70;;
73452;SDS011;61687;56.232;43.854;2023-08-07T13:50:24;5.07;;;3.50;;
73452;SDS011;61687;56.232;43.854;2023-08-07T13:52:50;5.85;;;3.90;;
73452;SDS011;61687;56.232;43.854;2023-08-07T13:55:16;7.68;;;3.40;;
73452;SDS011;61687;56.232;43.854;2023-08-07T13:57:42;7.37;;;3.37;;
73452;SDS011;61687;56.232;43.854;2023-08-07T14:00:08;6.60;;;3.40;;
73452;SDS011;61687;56.232;43.854;2023-08-07T14:02:36;6.00;;;3.20;;
73452;SDS011;61687;56.232;43.854;2023-08-07T14:05:02;4.38;;;3.20;;
73452;SDS011;61687;56.232;43.854;2023-08-07T14:07:29;5.07;;;3.20;;
73452;SDS011;61687;56.232;43.854;2023-08-07T14:09:55;6.30;;;3.30;;
73452;SDS011;61687;56.232;43.854;2023-08-07T14:12:21;5.50;;;3.63;;
73452;SDS011;61687;56.232;43.854;2023-08-07T14:14:47;5.45;;;3.58;;
73452;SDS011;61687;56.232;43.854;2023-08-07T14:17:13;7.93;;;3.43;;
73452;SDS011;61687;56.232;43.854;2023-08-07T14:19:39;6.32;;;3.50;;
73452;SDS011;61687;56.232;43.854;2023-08-07T14:22:05;6.63;;;3.00;;
73452;SDS011;61687;56.232;43.854;2023-08-07T14:24:31;7.33;;;3.30;;
73452;SDS011;61687;56.232;43.854;2023-08-07T14:26:57;5.13;;;3.30;;
73452;SDS011;61687;56.232;43.854;2023-08-07T14:29:23;7.75;;;3.60;;
73452;SDS011;61687;56.232;43.854;2023-08-07T14:31:48;6.40;;;3.20;;
73452;SDS011;61687;56.232;43.854;2023-08-07T14:34:14;5.80;;;3.20;;